Portada
METAR-TAF:

METAR-TAF

Aeroports :

Gran Canària, Espanya

Aeroport de Gran Canària

latitud: 27-56N, longitud: 015-23W, altitud: 23 m

Observació

L'informe es va fer fa 31 minuts, a les 00:30 UTC
Vent 21 kt del Nord
Temperatura 18°C
Humitat 64%
Pressió 1025 hPa
Visibilitat 10 km o més
Escasses núvols a una alçada de 3000 ft
Cel ennuvolat a una alçada de 3500 ft

METAR: GCLP 200030Z 01021KT 9999 FEW030 BKN035 18/11 Q1025 NOSIG

Hora: 01:01 (01:01 UTC)

Pronòstic

L'informe es va fer fa 5 hores i 1 minuts, a les 20:00 UTC
Pronòstic vàlid del 19 a les 21 UTC al 20 a les 21 UTC
Vent 20 kt del Nord/Nord-Est
Visibilitat 10 km o més
Núvols disperses a una alçada de 3500 ft
Probabilitat 40% :
Temporalment
l' 19 a les 21 UTC al 20 a les 12 UTC
Vent 20 kt del Nord amb ràfegues de 30 kt

TAF: GCLP 192000Z 1921/2021 02020KT 9999 SCT035 TX20/2014Z TN16/2006Z PROB40 TEMPO 1921/2012 01020G30KT

Observacions i pronòstics meteorològics de més de 4000 aeroports (METAR i TAF).

Les estacions disponibles són els punts grocs i vermells al mapa.

Posi el ratolí al punt desitjat per veure el nom de l'estació.

Feu clic per veure les observacions i els pronòstics meteorològics.

Per canviar el mapa: feu clic els botons verds amb una creu de color negre per apropar; al botó verd amb un guió per allunyar la imatge; o en les fletxes verdes per a mapes adjacents.


METAR-TAF: